Time;durP1;ratioP1;P1;durP2;ratioP2;P2;SDS_P1;SDS_P2;PMS_P1;PMS_P2;Temp;Humidity;BMP_temperature;BMP_pressure;BME280_temperature;BME280_humidity;BME280_pressure;Samples;Min_cycle;Max_cycle;Signal;HPM_P1;HPM_P2
2022/11/08 00:03:10;;;;;;;76.35;46.38;;;;;;;10.59;95.86;98188.75;10378896;28;20064;-55
2022/11/08 00:18:45;;;;;;;58.95;37.55;;;;;;;10.39;94.69;98174.78;10378665;28;20067;-56
2022/11/08 00:23:46;;;;;;;62.45;38.35;;;;;;;10.36;94.81;98172.19;10377995;28;20111;-56
2022/11/08 00:28:45;;;;;;;61.53;38.03;;;;;;;10.26;94.75;98180.75;10378089;28;20052;-57
2022/11/08 00:33:44;;;;;;;60.47;36.90;;;;;;;10.15;95.40;98180.69;10377279;28;20039;-56
2022/11/08 00:38:43;;;;;;;55.92;35.67;;;;;;;9.91;95.93;98179.63;10376620;28;20040;-56
2022/11/08 00:43:42;;;;;;;61.10;37.08;;;;;;;9.96;96.43;98184.84;10377061;28;20049;-57
2022/11/08 00:48:41;;;;;;;59.58;38.92;;;;;;;10.08;95.29;98174.56;10376878;28;20045;-56
2022/11/08 00:53:40;;;;;;;59.65;36.58;;;;;;;10.07;96.14;98174.56;10376701;28;20017;-57
2022/11/08 00:58:40;;;;;;;59.47;37.45;;;;;;;10.03;96.02;98163.31;10376764;28;20037;-57
2022/11/08 01:03:39;;;;;;;62.05;39.17;;;;;;;10.10;95.75;98159.91;10376286;28;20503;-57
2022/11/08 01:08:39;;;;;;;63.65;37.95;;;;;;;10.17;95.66;98156.50;10376382;28;20072;-56
2022/11/08 01:13:38;;;;;;;58.83;38.40;;;;;;;10.19;95.20;98157.38;10375765;28;20064;-57
2022/11/08 01:18:38;;;;;;;59.55;36.50;;;;;;;10.26;95.19;98157.41;10376036;28;20067;-56
2022/11/08 01:23:37;;;;;;;64.47;38.33;;;;;;;10.32;95.64;98154.84;10375244;28;20069;-57
2022/11/08 01:28:36;;;;;;;63.83;38.92;;;;;;;10.36;95.05;98160.06;10375440;28;20080;-57
2022/11/08 01:33:35;;;;;;;65.65;39.33;;;;;;;10.39;95.28;98161.81;10375150;28;20091;-57
2022/11/08 01:38:35;;;;;;;65.93;39.08;;;;;;;10.37;95.22;98160.94;10375124;28;20056;-57
2022/11/08 01:43:44;;;;;;;67.45;41.70;;;;;;;10.37;95.47;98155.75;10374939;28;20492;-57
2022/11/08 01:48:58;;;;;;;66.17;41.20;;;;;;;10.23;96.26;98157.38;10374331;28;20069;-57
2022/11/08 01:53:58;;;;;;;63.80;38.40;;;;;;;10.30;95.79;98148.78;10374630;28;20057;-55
2022/11/08 01:59:01;;;;;;;68.05;41.80;;;;;;;10.35;95.42;98157.47;10374439;28;20496;-56
2022/11/08 02:04:02;;;;;;;70.47;41.17;;;;;;;10.38;96.09;98147.13;10373543;28;20072;-55
2022/11/08 02:09:03;;;;;;;71.53;42.88;;;;;;;10.36;96.12;98141.06;10373924;28;20091;-55
2022/11/08 02:14:03;;;;;;;64.88;40.75;;;;;;;10.38;96.45;98141.94;10374304;28;20064;-55
2022/11/08 02:19:06;;;;;;;72.07;44.00;;;;;;;10.39;96.54;98141.06;10373363;28;20060;-55
2022/11/08 02:24:13;;;;;;;71.95;43.63;;;;;;;10.39;97.07;98147.13;10373444;28;20523;-55
2022/11/08 02:29:30;;;;;;;73.18;45.38;;;;;;;10.29;97.60;98147.06;10372681;28;20116;-55
2022/11/08 02:34:35;;;;;;;74.47;43.33;;;;;;;10.31;97.41;98155.72;10372862;28;20067;-55
2022/11/08 02:39:34;;;;;;;78.05;45.28;;;;;;;10.29;97.51;98154.84;10372989;28;20083;-55
2022/11/08 02:44:33;;;;;;;79.38;48.53;;;;;;;10.20;97.85;98161.69;10372870;28;20069;-55
2022/11/08 02:49:32;;;;;;;86.32;48.83;;;;;;;10.19;97.96;98162.56;10372293;28;20048;-56
2022/11/08 02:54:31;;;;;;;80.03;49.08;;;;;;;10.23;98.40;98157.38;10372602;28;20078;-55
2022/11/08 02:59:30;;;;;;;80.15;47.45;;;;;;;10.26;98.50;98152.22;10372626;28;20056;-56
2022/11/08 03:04:29;;;;;;;75.43;46.38;;;;;;;10.29;98.37;98153.13;10383462;28;20036;-58
2022/11/08 03:09:28;;;;;;;89.68;47.72;;;;;;;10.33;98.68;98157.47;10384221;28;20432;-58
2022/11/08 03:14:26;;;;;;;76.57;46.28;;;;;;;10.33;98.25;98161.75;10386099;28;20108;-57
2022/11/08 03:19:25;;;;;;;86.72;48.47;;;;;;;10.30;99.21;98157.44;10386020;28;20492;-57
2022/11/08 03:24:24;;;;;;;77.15;46.83;;;;;;;10.33;98.23;98169.53;10386048;28;20029;-57
2022/11/08 03:29:23;;;;;;;81.18;48.83;;;;;;;10.36;98.65;98170.44;10385442;28;20040;-57
2022/11/08 03:34:22;;;;;;;77.47;46.35;;;;;;;10.43;98.84;98165.31;10385724;28;20131;-58
2022/11/08 03:39:21;;;;;;;82.47;46.58;;;;;;;10.48;98.63;98182.63;10385426;28;20025;-57
2022/11/08 03:44:20;;;;;;;82.32;48.88;;;;;;;10.46;98.77;98176.56;10385378;28;20029;-57
2022/11/08 03:49:19;;;;;;;86.57;49.30;;;;;;;10.50;98.94;98178.31;10385611;28;20445;-57
2022/11/08 03:54:18;;;;;;;83.07;49.78;;;;;;;10.48;99.33;98176.59;10385294;28;20024;-57
2022/11/08 03:59:17;;;;;;;81.82;49.63;;;;;;;10.47;98.80;98173.13;10384955;28;20063;-57
2022/11/08 04:04:16;;;;;;;86.72;49.75;;;;;;;10.47;99.58;98173.13;10385190;28;20104;-57
2022/11/08 04:09:15;;;;;;;83.63;50.58;;;;;;;10.53;98.60;98188.72;10385177;28;20042;-58
2022/11/08 04:24:50;;;;;;;93.57;53.92;;;;;;;10.49;99.09;98192.13;10378031;28;20438;-57
2022/11/08 04:29:49;;;;;;;77.38;47.10;;;;;;;10.20;99.88;98184.19;10377685;28;20436;-57
2022/11/08 04:34:48;;;;;;;77.07;47.00;;;;;;;10.09;100.00;98185.81;10378033;28;20147;-57
2022/11/08 04:39:47;;;;;;;73.90;44.55;;;;;;;9.67;100.00;98189.75;10377329;28;20035;-57
2022/11/08 04:44:46;;;;;;;76.28;43.78;;;;;;;9.70;100.00;98179.41;10374103;28;20033;-58
2022/11/08 04:49:45;;;;;;;75.03;45.80;;;;;;;9.74;100.00;98184.66;10374898;28;20051;-56
2022/11/08 04:54:44;;;;;;;76.03;46.60;;;;;;;9.85;100.00;98181.31;10375556;28;20507;-56
2022/11/08 04:59:43;;;;;;;;;;;;;;;9.89;100.00;98191.72;10375425;28;20060;-56
2022/11/08 05:04:41;;;;;;;79.38;44.00;;;;;;;9.94;100.00;98186.56;10374227;28;19971;-58
2022/11/08 05:09:40;;;;;;;78.25;45.33;;;;;;;9.95;100.00;98196.06;10374748;28;20035;-57
2022/11/08 05:14:39;;;;;;;83.82;48.13;;;;;;;9.98;100.00;98193.53;10372267;28;20048;-57
2022/11/08 05:24:56;;;;;;;83.75;45.63;;;;;;;9.97;100.00;98186.59;10374272;28;20061;-57
2022/11/08 05:29:55;;;;;;;83.63;47.15;;;;;;;10.03;100.00;98196.13;10373825;28;20037;-57
2022/11/08 05:34:54;;;;;;;91.95;52.00;;;;;;;9.99;100.00;98195.25;10373585;28;20035;-57
2022/11/08 05:39:53;;;;;;;90.40;50.33;;;;;;;10.01;100.00;98188.34;10373797;28;20029;-57
2022/11/08 05:44:52;;;;;;;92.10;51.58;;;;;;;10.04;100.00;98203.91;10372778;28;20452;-58
2022/11/08 05:49:51;;;;;;;89.57;51.80;;;;;;;10.10;100.00;98198.81;10371964;28;20044;-58
2022/11/08 05:54:50;;;;;;;89.25;51.58;;;;;;;10.16;100.00;98211.78;10374229;28;20040;-58
2022/11/08 05:59:49;;;;;;;92.50;51.78;;;;;;;10.24;100.00;98210.97;10374336;28;20419;-58
2022/11/08 06:04:48;;;;;;;91.95;51.20;;;;;;;10.31;100.00;98211.06;10374163;28;20048;-58
2022/11/08 06:09:47;;;;;;;100.03;54.47;;;;;;;10.38;100.00;98209.38;10373318;28;20076;-55
2022/11/08 06:14:46;;;;;;;104.32;58.00;;;;;;;10.44;100.00;98219.78;10370147;28;20027;-58
2022/11/08 06:19:45;;;;;;;103.25;58.15;;;;;;;10.46;100.00;98228.44;10372880;28;20432;-58
2022/11/08 06:24:44;;;;;;;114.32;62.72;;;;;;;10.32;100.00;98235.28;10372440;28;20300;-57
2022/11/08 06:29:43;;;;;;;129.02;75.57;;;;;;;10.21;100.00;98235.19;10370328;28;20037;-58
2022/11/08 06:34:44;;;;;;;122.47;69.55;;;;;;;10.07;100.00;98245.44;10368812;28;20122;-58
2022/11/08 06:39:43;;;;;;;107.20;54.55;;;;;;;9.68;100.00;98246.81;10347101;28;20079;-58
2022/11/08 06:44:42;;;;;;;108.45;57.72;;;;;;;9.69;100.00;98258.91;10339373;28;20076;-58
2022/11/08 06:49:41;;;;;;;112.68;59.13;;;;;;;9.80;100.00;98261.59;10372542;28;20052;-58
2022/11/08 06:54:40;;;;;;;99.28;52.00;;;;;;;9.83;100.00;98273.72;10372623;28;20056;-58
2022/11/08 06:59:39;;;;;;;105.72;54.20;;;;;;;9.90;100.00;98267.75;10372636;28;20039;-57
2022/11/08 07:04:38;;;;;;;109.45;55.53;;;;;;;10.10;100.00;98270.53;10371355;28;20032;-57
2022/11/08 07:09:37;;;;;;;108.78;59.03;;;;;;;10.35;100.00;98269.00;10371836;28;20522;-58
2022/11/08 07:14:36;;;;;;;107.57;56.38;;;;;;;10.58;100.00;98270.06;10372096;28;20072;-58
2022/11/08 07:19:35;;;;;;;99.32;55.75;;;;;;;10.88;100.00;98263.38;10370931;28;20071;-57
2022/11/08 07:24:34;;;;;;;101.20;56.00;;;;;;;11.08;100.00;98260.00;10372106;28;20036;-57
2022/11/08 07:29:33;;;;;;;100.78;59.40;;;;;;;11.35;100.00;98259.28;10371771;28;20104;-57
2022/11/08 07:34:32;;;;;;;110.03;66.20;;;;;;;11.64;100.00;98262.84;10370889;28;20542;-56
2022/11/08 07:39:31;;;;;;;106.57;65.75;;;;;;;11.83;100.00;98252.47;10371731;28;20079;-58
2022/11/08 07:44:30;;;;;;;101.43;64.18;;;;;;;11.92;100.00;98249.03;10370081;28;20053;-57
2022/11/08 07:49:29;;;;;;;94.95;62.90;;;;;;;12.24;100.00;98251.66;10375504;28;20063;-58
2022/11/08 07:54:28;;;;;;;93.55;61.92;;;;;;;12.32;99.20;98251.69;10379210;28;20120;-57
2022/11/08 07:59:27;;;;;;;94.15;58.03;;;;;;;12.29;97.72;98250.81;10377742;28;20041;-57
2022/11/08 08:04:28;;;;;;;89.28;60.20;;;;;;;12.20;97.67;98258.59;10378310;28;20400;-57
2022/11/08 08:09:27;;;;;;;86.90;57.55;;;;;;;12.14;97.43;98258.59;10380373;28;20087;-57
2022/11/08 08:14:26;;;;;;;84.70;55.28;;;;;;;12.14;96.89;98256.00;10380579;28;20643;-57
2022/11/08 08:19:25;;;;;;;71.63;48.42;;;;;;;12.26;96.90;98247.31;10380695;28;20061;-57
2022/11/08 08:24:25;;;;;;;65.07;44.28;;;;;;;12.51;96.98;98259.50;10380118;28;20036;-57
2022/11/08 08:29:24;;;;;;;70.00;46.17;;;;;;;12.72;95.31;98257.75;10378455;28;20080;-57
2022/11/08 08:34:23;;;;;;;66.80;43.80;;;;;;;12.92;94.98;98255.09;10378988;28;20032;-57
2022/11/08 08:39:22;;;;;;;66.22;45.28;;;;;;;13.04;94.52;98255.06;10378305;28;20112;-57
2022/11/08 08:44:21;;;;;;;72.72;49.75;;;;;;;13.31;94.31;98253.25;10378312;28;20100;-57
2022/11/08 08:49:20;;;;;;;71.28;49.30;;;;;;;13.57;93.48;98251.41;10376732;28;20055;-57
2022/11/08 08:54:19;;;;;;;68.55;44.22;;;;;;;13.68;92.61;98253.97;10378622;28;20226;-58
2022/11/08 08:59:18;;;;;;;65.30;43.45;;;;;;;13.75;92.55;98246.97;10376183;28;20072;-56
2022/11/08 09:04:17;;;;;;;76.93;53.38;;;;;;;13.74;90.79;98245.22;10377948;28;20030;-58
2022/11/08 09:09:16;;;;;;;64.10;44.00;;;;;;;13.70;89.21;98256.56;10377125;28;20040;-58
2022/11/08 09:14:15;;;;;;;62.30;41.78;;;;;;;13.88;89.04;98251.22;10377294;28;20116;-57
2022/11/08 09:19:14;;;;;;;56.35;39.88;;;;;;;14.10;87.97;98251.97;10376338;28;20045;-57
2022/11/08 09:24:13;;;;;;;56.47;39.90;;;;;;;14.27;85.69;98253.59;10377701;28;20032;-56
2022/11/08 09:29:12;;;;;;;54.17;37.03;;;;;;;14.12;84.23;98244.97;10371489;28;20100;-56
2022/11/08 09:34:11;;;;;;;56.17;39.70;;;;;;;13.94;84.46;98245.13;10377480;28;20060;-58
2022/11/08 09:39:10;;;;;;;57.22;38.35;;;;;;;13.71;84.75;98238.28;10377558;28;20069;-57
2022/11/08 09:44:47;;;;;;;51.67;35.40;;;;;;;13.73;83.37;98239.16;10377043;28;20090;-57
2022/11/08 09:50:11;;;;;;;50.83;34.95;;;;;;;13.72;83.40;98229.59;10365208;28;20520;-57
2022/11/08 09:55:34;;;;;;;54.35;36.75;;;;;;;13.76;83.07;98220.88;10376790;28;20071;-56
2022/11/08 10:00:36;;;;;;;51.38;36.05;;;;;;;13.92;82.76;98206.00;10376736;28;20056;-57
2022/11/08 10:05:42;;;;;;;55.28;38.17;;;;;;;14.13;81.92;98204.09;10376365;28;20064;-57
2022/11/08 10:11:03;;;;;;;50.70;32.95;;;;;;;14.27;80.71;98197.00;10348833;28;20069;-56
2022/11/08 10:16:21;;;;;;;47.78;34.40;;;;;;;14.38;79.75;98189.97;10334211;28;20075;-57
2022/11/08 10:21:58;;;;;;;59.90;48.45;;;;;;;14.54;79.75;98187.19;10332566;28;20567;-56
2022/11/08 10:26:59;;;;;;;52.42;35.70;;;;;;;14.64;77.41;98175.78;10331998;28;20512;-57
2022/11/08 10:32:10;;;;;;;63.72;52.83;;;;;;;14.70;76.70;98186.19;10369285;28;20060;-56
2022/11/08 10:37:12;;;;;;;43.42;29.70;;;;;;;14.72;75.12;98176.56;10369662;28;20069;-57
2022/11/08 10:42:32;;;;;;;46.47;28.60;;;;;;;14.81;74.99;98173.88;10375351;28;20067;-57
2022/11/08 10:47:32;;;;;;;44.20;29.33;;;;;;;14.93;74.84;98167.63;10368719;28;20067;-58
2022/11/08 10:52:38;;;;;;;39.45;29.08;;;;;;;15.02;73.99;98154.47;10370954;28;20077;-57
2022/11/08 10:57:41;;;;;;;37.22;26.40;;;;;;;15.21;73.17;98143.78;10368296;28;20072;-57
2022/11/08 11:02:41;;;;;;;39.47;25.92;;;;;;;15.33;72.38;98147.97;10372465;28;20061;-55
2022/11/08 11:07:45;;;;;;;29.08;20.25;;;;;;;15.30;69.89;98141.03;10361188;28;20056;-57
2022/11/08 11:12:49;;;;;;;33.10;22.92;;;;;;;15.25;69.39;98133.25;10374073;28;20776;-58
2022/11/08 11:17:48;;;;;;;30.67;22.67;;;;;;;15.36;68.44;98119.16;10369464;28;20073;-57
2022/11/08 11:22:48;;;;;;;;;;;;;;;15.49;67.70;98125.94;10376017;28;20087;-56
2022/11/08 11:27:53;;;;;;;22.05;16.73;;;;;;;15.48;64.51;98121.56;10381741;28;19948;-55
2022/11/08 11:32:56;;;;;;;25.38;18.33;;;;;;;15.60;64.42;98118.81;10381823;28;20061;-55
2022/11/08 11:37:59;;;;;;;26.77;18.92;;;;;;;15.84;64.43;98122.81;10380191;28;20088;-56
2022/11/08 11:43:11;;;;;;;25.23;18.45;;;;;;;15.98;63.16;98114.72;10381213;28;20587;-56
2022/11/08 11:48:20;;;;;;;25.70;19.20;;;;;;;16.19;63.28;98115.25;10381172;28;20084;-56
2022/11/08 11:53:28;;;;;;;25.10;18.08;;;;;;;16.27;62.40;98110.72;10381054;28;20469;-56
2022/11/08 11:58:46;;;;;;;27.05;18.95;;;;;;;16.33;61.83;98105.38;10380539;28;20751;-56
2022/11/08 12:04:03;;;;;;;25.00;19.23;;;;;;;16.39;61.51;98107.88;10380458;28;20072;-56
2022/11/08 12:09:19;;;;;;;25.63;18.02;;;;;;;16.39;60.52;98094.78;10380371;28;20068;-55
2022/11/08 12:14:24;;;;;;;26.88;19.30;;;;;;;16.41;60.04;98087.75;10380024;28;20075;-56
2022/11/08 12:19:42;;;;;;;25.77;18.90;;;;;;;16.57;60.15;98093.56;10379734;28;20079;-55
2022/11/08 12:24:56;;;;;;;23.95;18.90;;;;;;;16.76;59.77;98087.97;10379412;28;20072;-56
2022/11/08 12:30:13;;;;;;;26.73;19.55;;;;;;;16.81;60.00;98080.91;10378840;28;20475;-56
2022/11/08 12:35:41;;;;;;;23.55;16.95;;;;;;;16.82;59.14;98083.50;10377806;28;20448;-56
2022/11/08 12:40:51;;;;;;;23.25;16.38;;;;;;;17.06;58.81;98087.34;10378724;28;20083;-56
2022/11/08 12:46:08;;;;;;;25.42;18.30;;;;;;;17.46;59.57;98080.34;10378420;28;20068;-57
2022/11/08 12:51:28;;;;;;;24.73;17.65;;;;;;;17.64;56.37;98081.69;10378332;28;20087;-58
2022/11/08 12:56:34;;;;;;;25.23;18.65;;;;;;;17.48;56.29;98075.94;10377909;28;20071;-57
2022/11/08 13:01:35;;;;;;;21.25;17.13;;;;;;;17.16;56.37;98076.66;10378325;28;20075;-57
2022/11/08 13:06:40;;;;;;;23.52;18.63;;;;;;;16.89;56.95;98079.84;10378053;28;20060;-56
2022/11/08 13:12:00;;;;;;;24.67;18.23;;;;;;;16.78;57.87;98086.19;10361406;28;20113;-57
2022/11/08 13:17:12;;;;;;;25.33;18.05;;;;;;;16.49;58.22;98090.25;10334056;28;20095;-57
2022/11/08 13:22:30;;;;;;;25.50;19.17;;;;;;;16.47;58.47;98097.28;10341265;28;20068;-57
2022/11/08 13:27:28;;;;;;;22.17;16.58;;;;;;;16.32;57.50;98100.16;10374373;28;20487;-57
2022/11/08 13:32:43;;;;;;;;;;;;;;;16.11;58.52;98097.03;10338042;28;20504;-58
2022/11/08 13:38:09;;;;;;;25.83;18.52;;;;;;;16.16;59.19;98096.97;10371165;28;19955;-57
2022/11/08 13:43:30;;;;;;;25.13;18.85;;;;;;;16.07;59.24;98104.09;10376650;28;20457;-57
2022/11/08 13:48:40;;;;;;;26.65;18.85;;;;;;;16.15;59.71;98100.47;10376112;28;20560;-57
2022/11/08 13:53:48;;;;;;;24.98;18.33;;;;;;;16.05;60.21;98105.88;10374371;28;20452;-56
2022/11/08 13:58:47;;;;;;;26.33;18.00;;;;;;;15.89;60.36;98099.19;10375472;28;20072;-58
2022/11/08 14:03:46;;;;;;;;;;;;;;;15.88;60.44;98100.09;10376198;28;20068;-58
2022/11/08 14:09:19;;;;;;;26.17;17.87;;;;;;;15.88;60.63;98105.31;10375460;28;19912;-57
2022/11/08 14:14:24;;;;;;;28.98;20.30;;;;;;;15.81;61.43;98096.69;10374501;28;20061;-55
2022/11/08 14:19:25;;;;;;;28.27;20.30;;;;;;;15.75;61.78;98103.75;10374866;28;20068;-56
2022/11/08 14:24:32;;;;;;;28.38;21.45;;;;;;;15.68;62.69;98103.84;10363630;28;20076;-56
2022/11/08 14:29:31;;;;;;;34.83;23.17;;;;;;;15.65;63.15;98110.88;10353985;28;20171;-56
2022/11/08 14:34:32;;;;;;;;;;;;;;;15.50;63.79;98111.97;10375288;28;20025;-56
2022/11/08 14:39:33;;;;;;;37.05;26.30;;;;;;;15.29;65.38;98117.50;10374616;28;19960;-57
2022/11/08 14:44:33;;;;;;;33.05;19.77;;;;;;;14.97;67.79;98118.81;10374835;28;20067;-56
2022/11/08 14:49:35;;;;;;;36.40;23.88;;;;;;;14.71;69.59;98125.22;10374167;28;20076;-57
2022/11/08 14:54:40;;;;;;;34.35;24.35;;;;;;;14.64;70.31;98123.53;10374025;28;20069;-57
2022/11/08 14:59:43;;;;;;;47.92;35.25;;;;;;;14.63;70.19;98127.88;10373406;28;20492;-59
2022/11/08 15:04:42;;;;;;;35.80;26.40;;;;;;;14.71;70.09;98124.34;10374392;28;20064;-56
2022/11/08 15:09:41;;;;;;;;;;;;;;;14.72;70.20;98121.72;10374521;28;20068;-56
2022/11/08 15:14:52;;;;;;;38.65;27.55;;;;;;;14.72;70.68;98126.94;10373411;28;19915;-56
2022/11/08 15:20:02;;;;;;;40.95;27.33;;;;;;;14.71;71.16;98130.44;10373803;28;20072;-56
2022/11/08 15:25:13;;;;;;;40.80;28.50;;;;;;;14.64;71.71;98141.81;10373149;28;20075;-56
2022/11/08 15:30:20;;;;;;;207.48;185.93;;;;;;;14.52;72.50;98140.22;10348281;28;20068;-57
2022/11/08 15:35:31;;;;;;;51.63;43.40;;;;;;;14.55;72.74;98141.91;10332132;28;20064;-56
2022/11/08 15:40:32;;;;;;;49.70;38.88;;;;;;;14.58;72.85;98147.09;10364484;28;20068;-56
2022/11/08 15:45:34;;;;;;;35.13;27.80;;;;;;;14.58;73.04;98147.97;10372315;28;20069;-56
2022/11/08 15:50:33;;;;;;;32.30;22.38;;;;;;;14.58;72.92;98149.72;10372747;28;20560;-56
2022/11/08 15:55:40;;;;;;;;;;;;;;;14.58;73.14;98157.56;10373075;28;20929;-56
2022/11/08 16:00:44;;;;;;;46.42;33.30;;;;;;;14.53;73.52;98156.75;10373108;28;19959;-56
2022/11/08 16:05:43;;;;;;;48.05;33.95;;;;;;;14.52;73.61;98149.75;10372537;28;20069;-57
2022/11/08 16:10:45;;;;;;;;;;;;;;;14.49;73.74;98155.03;10377605;28;20078;-56
2022/11/08 16:15:44;;;;;;;41.95;31.95;;;;;;;14.43;73.92;98162.91;10380498;28;19966;-56
2022/11/08 16:20:43;;;;;;;45.60;33.67;;;;;;;14.36;73.94;98162.13;10380277;28;20803;-58
2022/11/08 16:25:46;;;;;;;;;;;;;;;14.31;74.44;98161.28;10380118;28;20403;-56
2022/11/08 16:30:45;;;;;;;45.67;29.98;;;;;;;14.18;74.35;98164.03;10379963;28;19948;-56
2022/11/08 16:35:45;;;;;;;46.40;34.67;;;;;;;14.06;75.03;98173.72;10379615;28;20075;-56
2022/11/08 16:40:44;;;;;;;45.72;34.00;;;;;;;13.95;75.69;98177.25;10377203;28;20069;-56
2022/11/08 16:45:43;;;;;;;51.85;34.28;;;;;;;13.88;75.69;98172.97;10377685;28;20036;-58
2022/11/08 16:50:42;;;;;;;;;;;;;;;13.83;76.09;98177.34;10378415;28;20092;-58
2022/11/08 16:55:41;;;;;;;63.97;43.47;;;;;;;13.62;76.84;98182.72;10375516;28;19908;-56
2022/11/08 17:00:42;;;;;;;60.60;42.20;;;;;;;13.53;76.87;98192.28;10374195;28;20184;-58
2022/11/08 17:05:41;;;;;;;57.35;40.15;;;;;;;13.44;77.00;98188.88;10371332;28;20068;-59
2022/11/08 17:10:41;;;;;;;63.13;42.10;;;;;;;13.34;77.25;98191.53;10371188;28;20021;-59
2022/11/08 17:15:40;;;;;;;53.15;37.20;;;;;;;13.25;77.27;98198.53;10371407;28;20083;-60
2022/11/08 17:20:40;;;;;;;51.17;36.88;;;;;;;13.16;77.85;98207.25;10370699;28;20460;-57
2022/11/08 17:25:41;;;;;;;46.85;33.97;;;;;;;13.00;77.82;98213.38;10372807;28;20523;-56
2022/11/08 17:30:43;;;;;;;53.60;36.08;;;;;;;12.84;78.41;98217.78;10373007;28;20072;-57
2022/11/08 17:35:41;;;;;;;50.53;34.67;;;;;;;12.69;78.68;98216.06;10373878;28;20083;-57
2022/11/08 17:40:41;;;;;;;44.17;31.95;;;;;;;12.55;79.34;98216.09;10371701;28;20381;-58
2022/11/08 17:45:39;;;;;;;;;;;;;;;12.48;80.04;98214.38;10371279;28;20076;-57
2022/11/08 17:50:38;;;;;;;46.25;33.58;;;;;;;12.42;80.87;98219.59;10372898;28;19920;-56
2022/11/08 17:55:37;;;;;;;50.88;40.28;;;;;;;12.40;81.25;98214.38;10372467;28;20025;-58
2022/11/08 18:00:36;;;;;;;48.17;35.75;;;;;;;12.40;81.51;98210.94;10370502;28;20111;-57
2022/11/08 18:05:35;;;;;;;48.67;35.22;;;;;;;12.42;81.45;98215.25;10372687;28;20024;-56
2022/11/08 18:10:34;;;;;;;47.30;33.47;;;;;;;12.44;81.55;98212.66;10372329;28;20033;-57
2022/11/08 18:15:33;;;;;;;53.63;35.45;;;;;;;12.44;81.71;98216.13;10370066;28;20056;-57
2022/11/08 18:20:32;;;;;;;53.45;39.50;;;;;;;12.46;81.73;98218.72;10372618;28;20354;-57
2022/11/08 18:25:32;;;;;;;68.55;45.67;;;;;;;12.49;81.78;98216.97;10371401;28;20458;-57
2022/11/08 18:30:32;;;;;;;60.28;40.90;;;;;;;12.50;81.97;98217.84;10342454;28;20466;-57
2022/11/08 18:35:34;;;;;;;55.83;40.05;;;;;;;12.45;82.12;98217.00;10329792;28;20092;-57
2022/11/08 18:40:34;;;;;;;54.60;38.78;;;;;;;12.36;82.16;98209.19;10351632;28;20081;-56
2022/11/08 18:45:32;;;;;;;;;;;;;;;12.26;82.27;98216.97;10370820;28;20111;-56
2022/11/08 18:50:31;;;;;;;49.72;36.17;;;;;;;12.18;82.49;98218.72;10371503;28;19921;-57
2022/11/08 18:55:30;;;;;;;48.80;33.88;;;;;;;12.12;82.72;98218.69;10368903;28;20547;-57
2022/11/08 19:00:29;;;;;;;50.47;33.70;;;;;;;12.03;82.96;98205.69;10370556;28;20076;-58
2022/11/08 19:05:28;;;;;;;48.08;34.03;;;;;;;11.99;83.33;98216.94;10371459;28;20044;-55
2022/11/08 19:10:27;;;;;;;53.13;34.80;;;;;;;11.86;83.46;98221.28;10370474;28;20117;-55
2022/11/08 19:15:26;;;;;;;49.08;36.53;;;;;;;11.87;83.85;98226.47;10369776;28;20065;-57
2022/11/08 19:20:25;;;;;;;61.85;39.13;;;;;;;11.70;84.40;98227.31;10369943;28;20076;-55
2022/11/08 19:25:24;;;;;;;59.13;39.60;;;;;;;11.66;84.98;98242.03;10369581;28;20044;-55
2022/11/08 19:30:24;;;;;;;59.20;36.47;;;;;;;11.64;85.48;98246.34;10369827;28;20564;-55
2022/11/08 19:35:23;;;;;;;53.10;37.50;;;;;;;11.64;85.25;98233.34;10369870;28;20095;-55
2022/11/08 19:40:22;;;;;;;55.42;35.97;;;;;;;11.65;85.47;98240.31;10368977;28;20047;-55
2022/11/08 19:45:20;;;;;;;60.47;39.42;;;;;;;11.68;86.05;98230.78;10373487;28;20033;-56
2022/11/08 19:50:19;;;;;;;58.53;41.22;;;;;;;11.63;85.97;98249.84;10378042;28;20052;-57
2022/11/08 19:55:18;;;;;;;62.58;40.40;;;;;;;11.65;86.30;98253.31;10376894;28;20484;-57
2022/11/08 20:00:18;;;;;;;63.45;40.70;;;;;;;11.70;86.02;98256.78;10377354;28;20041;-57
2022/11/08 20:05:18;;;;;;;65.22;40.05;;;;;;;11.72;86.33;98247.25;10377963;28;20088;-57
2022/11/08 20:10:17;;;;;;;63.10;40.33;;;;;;;11.77;86.51;98245.53;10375502;28;20134;-55
2022/11/08 20:15:16;;;;;;;52.72;37.15;;;;;;;11.84;86.54;98249.03;10376798;28;20392;-56
2022/11/08 20:20:14;;;;;;;57.38;39.55;;;;;;;11.87;86.85;98252.47;10376495;28;20499;-56
2022/11/08 20:25:13;;;;;;;71.25;45.60;;;;;;;11.92;86.71;98247.28;10376587;28;20041;-57
2022/11/08 20:30:12;;;;;;;64.63;41.25;;;;;;;11.99;86.77;98258.56;10375585;28;20419;-56
2022/11/08 20:35:11;;;;;;;99.20;60.65;;;;;;;12.03;86.64;98252.50;10376299;28;20068;-56
2022/11/08 20:40:11;;;;;;;70.40;44.42;;;;;;;12.06;86.92;98255.09;10375116;28;20039;-56
2022/11/08 20:45:09;;;;;;;;;;;;;;;12.09;86.57;98252.53;10364762;28;20059;-56
2022/11/08 20:50:09;;;;;;;59.25;40.78;;;;;;;12.10;86.65;98252.50;10375351;28;19997;-56
2022/11/08 20:55:08;;;;;;;62.35;42.72;;;;;;;12.13;86.44;98250.78;10374667;28;20077;-57
2022/11/08 21:00:08;;;;;;;57.90;40.38;;;;;;;12.05;86.51;98248.19;10375467;28;20484;-57
2022/11/08 21:05:07;;;;;;;60.15;42.33;;;;;;;12.04;86.72;98249.91;10374025;28;20080;-58
2022/11/08 21:10:06;;;;;;;56.90;40.40;;;;;;;12.05;86.27;98246.44;10373685;28;20138;-56
2022/11/08 21:15:06;;;;;;;59.00;41.13;;;;;;;12.05;86.45;98248.19;10374174;28;20530;-57
2022/11/08 21:20:05;;;;;;;63.58;44.53;;;;;;;12.03;86.36;98245.56;10373710;28;20067;-57
2022/11/08 21:25:04;;;;;;;78.93;54.72;;;;;;;12.01;86.86;98246.44;10374096;28;20076;-57
2022/11/08 21:30:04;;;;;;;68.97;42.80;;;;;;;11.97;86.62;98247.28;10373637;28;20461;-56
2022/11/08 21:35:03;;;;;;;58.60;39.53;;;;;;;11.89;87.20;98236.88;10372845;28;20507;-57
2022/11/08 21:40:02;;;;;;;67.35;46.55;;;;;;;11.80;87.94;98240.31;10373021;28;20492;-57
2022/11/08 21:45:01;;;;;;;74.30;51.33;;;;;;;11.77;88.07;98242.06;10373136;28;20076;-57
2022/11/08 21:50:00;;;;;;;;;;;;;;;11.74;87.84;98247.28;10374313;28;20083;-57
2022/11/08 21:54:59;;;;;;;63.20;40.00;;;;;;;11.56;88.22;98238.56;10373474;28;19937;-57
2022/11/08 21:59:58;;;;;;;62.13;42.80;;;;;;;11.58;88.32;98241.16;10372690;28;20118;-57
2022/11/08 22:04:57;;;;;;;70.82;47.28;;;;;;;11.55;88.52;98228.13;10372165;28;20540;-57
2022/11/08 22:09:56;;;;;;;78.22;53.15;;;;;;;11.42;88.98;98235.03;10372504;28;20162;-57
2022/11/08 22:14:55;;;;;;;73.25;49.50;;;;;;;11.43;89.17;98241.97;10371743;28;20064;-57
2022/11/08 22:19:54;;;;;;;74.90;49.15;;;;;;;11.38;89.14;98239.34;10372012;28;20029;-57
2022/11/08 22:24:54;;;;;;;70.55;46.13;;;;;;;11.40;89.37;98242.81;10371975;28;20467;-57
2022/11/08 22:29:53;;;;;;;64.70;44.17;;;;;;;11.43;89.19;98239.38;10371127;28;20072;-57
2022/11/08 22:34:52;;;;;;;63.47;41.53;;;;;;;11.43;89.50;98239.38;10371281;28;20021;-57
2022/11/08 22:39:51;;;;;;;66.82;44.03;;;;;;;11.40;89.40;98232.44;10371044;28;20028;-57
2022/11/08 22:44:50;;;;;;;68.85;44.90;;;;;;;11.33;88.93;98235.88;10370632;28;20024;-57
2022/11/08 22:49:49;;;;;;;74.43;48.42;;;;;;;11.25;88.83;98232.41;10370561;28;20049;-57
2022/11/08 22:54:48;;;;;;;72.80;49.00;;;;;;;11.00;90.24;98232.25;10370383;28;20490;-57
2022/11/08 22:59:46;;;;;;;66.80;42.42;;;;;;;10.92;90.92;98244.34;10370632;28;20033;-57
2022/11/08 23:04:45;;;;;;;65.38;44.42;;;;;;;10.80;91.18;98242.53;10369018;28;20040;-57
2022/11/08 23:09:44;;;;;;;65.53;43.25;;;;;;;10.80;91.63;98241.66;10370481;28;20420;-57
2022/11/08 23:25:18;;;;;;;60.88;40.17;;;;;;;10.87;92.21;98255.53;10375514;28;20068;-57
2022/11/08 23:35:34;;;;;;;59.05;38.08;;;;;;;10.97;92.26;98253.03;10379172;28;20124;-57
2022/11/08 23:45:51;;;;;;;64.10;40.50;;;;;;;11.06;92.26;98248.72;10378470;28;20072;-57